Portada
METAR-TAF:

METAR-TAF

Aeropuertos :

Anchorage, Alaska, Estados Unidos

latitud: 61-11N, longitud: 149-58W, altitud: 22 m

Observación

El informe se hizo hace 30 minutos, a las 07:53 UTC
Viento 11 kt del norte
Temperatura -5°C
Humedad 86%
Presión 995 hPa
Visibilidad: 2.0 km
Escasas nubes a una altura de 700 ft
Cielo cubierto a una altura de 1900 ft
poca nieve, neblina

METAR: PALH 280753Z 01011KT 1 1/4SM -SN BR FEW007 OVC019 M05/M07 A2937 RMK AO2 SLP947 P0000 T10501067

Hora: 23:23 (08:23 UTC)


TAF: falta

Observaciones y pronósticos meteorológicos de más de 4000 aeropuertos (mensajes METAR y TAF).

Los puntos amarillos y rojos representan las estaciones disponibles.

Ponga el ratón en el punto deseado para ver el nombre de la estación.

Haga clic para ver las observaciones y los pronósticos meteorológicos.

Para cambiar el mapa : haga clic en los botones verdes con una cruz de color negro para hacer un zoom, en el botón verde con un guión para alejar o en las flechas verdes para mapas adyacentes.


METAR-TAF: